Time;durP1;ratioP1;P1;durP2;ratioP2;P2;SDS_P1;SDS_P2;PMS_P1;PMS_P2;Temp;Humidity;BMP_temperature;BMP_pressure;BME280_temperature;BME280_humidity;BME280_pressure;Samples;Min_cycle;Max_cycle;Signal;HPM_P1;HPM_P2
2023/05/11 04:00:30;;;;;;;0.60;0.20;;;;;;;;;;6047514;23;20399;31
2023/05/11 04:03:04;;;;;;;0.60;0.10;;;14.50;99.90;;;;;;4957264;29;20455;-78
2023/05/11 04:05:32;;;;;;;0.60;0.10;;;14.40;99.90;;;;;;4959382;29;20962;-77
2023/05/11 04:08:01;;;;;;;0.60;0.10;;;14.40;99.90;;;;;;4957050;29;20832;-79
2023/05/11 04:10:29;;;;;;;0.60;0.17;;;14.30;99.90;;;;;;4964504;28;20448;-79
2023/05/11 04:12:57;;;;;;;0.60;0.10;;;14.20;99.90;;;;;;4963833;29;20446;-78
2023/05/11 04:15:25;;;;;;;0.60;0.10;;;14.20;99.90;;;;;;4963164;29;21124;-78
2023/05/11 04:17:52;;;;;;;0.60;0.10;;;14.10;99.90;;;;;;5013951;23;20922;-72
2023/05/11 04:20:22;;;;;;;0.60;0.20;;;14.20;99.90;;;;;;5016288;28;20432;-72
2023/05/11 04:22:49;;;;;;;0.60;0.10;;;14.10;99.90;;;;;;5015927;28;20447;-70
2023/05/11 04:25:17;;;;;;;0.60;0.10;;;14.10;99.90;;;;;;4996422;28;20456;-70
2023/05/11 04:27:45;;;;;;;0.60;0.20;;;13.90;99.90;;;;;;5003637;28;20546;-71
2023/05/11 04:30:14;;;;;;;0.60;0.10;;;13.90;99.90;;;;;;5015392;28;20659;-71
2023/05/11 04:32:41;;;;;;;0.60;0.10;;;13.90;99.90;;;;;;5013451;28;20473;-71
2023/05/11 04:35:10;;;;;;;0.60;0.10;;;13.90;99.90;;;;;;5016307;28;20443;-70
2023/05/11 04:37:39;;;;;;;0.60;0.10;;;13.90;99.90;;;;;;5006874;28;20490;-70
2023/05/11 04:40:08;;;;;;;0.60;0.10;;;13.90;99.90;;;;;;5014315;28;20484;-71
2023/05/11 04:42:36;;;;;;;0.60;0.10;;;13.90;99.90;;;;;;5009057;28;20456;-71
2023/05/11 04:45:04;;;;;;;0.60;0.10;;;13.90;99.90;;;;;;5011379;28;20448;-71
2023/05/11 04:47:32;;;;;;;0.60;0.20;;;14.00;99.90;;;;;;5014983;28;20471;-72
2023/05/11 04:50:00;;;;;;;0.60;0.20;;;13.90;99.90;;;;;;5016192;28;20443;-71
2023/05/11 04:52:28;;;;;;;0.60;0.10;;;13.80;99.90;;;;;;5010054;28;20952;-71
2023/05/11 04:54:58;;;;;;;0.60;0.10;;;13.80;99.90;;;;;;5012109;28;20925;-72
2023/05/11 04:57:25;;;;;;;0.60;0.20;;;13.90;99.90;;;;;;5015579;28;20466;-70
2023/05/11 04:59:53;;;;;;;0.60;0.10;;;13.90;99.90;;;;;;5004502;28;20988;-71
2023/05/11 05:02:21;;;;;;;0.60;0.10;;;14.00;99.90;;;;;;5010726;28;20951;-71
2023/05/11 05:04:49;;;;;;;0.60;0.17;;;14.10;99.90;;;;;;5022738;28;20449;-71
2023/05/11 05:07:17;;;;;;;0.60;0.10;;;14.10;99.90;;;;;;5019573;28;20480;-74
2023/05/11 05:09:45;;;;;;;0.60;0.10;;;14.10;99.90;;;;;;5022509;28;20439;-71
2023/05/11 05:12:14;;;;;;;0.60;0.10;;;14.20;99.90;;;;;;5013723;28;20445;-70
2023/05/11 05:14:42;;;;;;;0.60;0.10;;;14.20;99.90;;;;;;5014476;28;20856;-72
2023/05/11 05:17:10;;;;;;;0.60;0.10;;;14.20;99.90;;;;;;5012807;28;20479;-73
2023/05/11 05:19:38;;;;;;;0.60;0.10;;;14.20;99.90;;;;;;5009130;28;21053;-72
2023/05/11 05:22:05;;;;;;;0.60;0.10;;;14.30;99.90;;;;;;5015144;28;20462;-73
2023/05/11 05:24:34;;;;;;;0.60;0.10;;;14.30;99.90;;;;;;5013138;28;20462;-72
2023/05/11 05:27:01;;;;;;;0.60;0.10;;;14.30;99.90;;;;;;4995014;28;20479;-71
2023/05/11 05:29:31;;;;;;;0.60;0.10;;;14.40;99.90;;;;;;4995677;28;20437;-71
2023/05/11 05:31:59;;;;;;;0.60;0.10;;;;;;;;;;5006195;28;20445;-71
2023/05/11 05:34:26;;;;;;;0.60;0.10;;;14.30;99.90;;;;;;5009598;28;20467;-72
2023/05/11 05:36:54;;;;;;;0.60;0.10;;;14.30;99.90;;;;;;5015071;28;20468;-72
2023/05/11 05:39:22;;;;;;;0.60;0.10;;;14.40;99.90;;;;;;5014609;28;20490;-72
2023/05/11 05:41:50;;;;;;;0.60;0.10;;;14.40;99.90;;;;;;5014625;28;20459;-71
2023/05/11 05:44:18;;;;;;;0.60;0.10;;;14.40;99.90;;;;;;5012030;28;20544;-72
2023/05/11 05:46:48;;;;;;;0.60;0.10;;;14.40;99.90;;;;;;5014520;28;20467;-71
2023/05/11 05:49:15;;;;;;;0.60;0.10;;;14.40;99.90;;;;;;5014611;28;20444;-72
2023/05/11 05:51:43;;;;;;;0.60;0.10;;;14.40;99.90;;;;;;5014895;28;20463;-71
2023/05/11 05:54:12;;;;;;;0.60;0.10;;;14.40;99.90;;;;;;5013561;28;20953;-71
2023/05/11 05:56:40;;;;;;;0.60;0.10;;;14.40;99.90;;;;;;5012089;28;20527;-72
2023/05/11 05:59:09;;;;;;;0.60;0.20;;;14.40;99.90;;;;;;5014467;28;20479;-73
2023/05/11 06:01:40;;;;;;;0.60;0.10;;;14.50;99.90;;;;;;5014493;28;20925;-71
2023/05/11 06:04:10;;;;;;;0.60;0.13;;;14.50;99.90;;;;;;5013094;28;20487;-71
2023/05/11 06:06:38;;;;;;;0.60;0.10;;;14.50;99.90;;;;;;5013637;28;20468;-72
2023/05/11 06:09:06;;;;;;;0.60;0.10;;;14.40;99.90;;;;;;5013678;28;20440;-71
2023/05/11 06:11:33;;;;;;;0.60;0.10;;;14.40;99.90;;;;;;5013823;28;20452;-72
2023/05/11 06:14:01;;;;;;;0.60;0.10;;;14.40;99.90;;;;;;5015340;28;20467;-71
2023/05/11 06:16:29;;;;;;;0.60;0.10;;;14.20;99.90;;;;;;5031584;28;20481;-71
2023/05/11 06:18:57;;;;;;;0.80;0.60;;;14.10;99.90;;;;;;5023993;28;20434;-72
2023/05/11 06:21:27;;;;;;;0.60;0.10;;;14.20;99.90;;;;;;5016595;28;20442;-71
2023/05/11 06:23:55;;;;;;;0.60;0.10;;;14.20;99.90;;;;;;5007325;28;20463;-74
2023/05/11 06:26:23;;;;;;;0.60;0.20;;;14.40;99.90;;;;;;5013808;28;20470;-72
2023/05/11 06:28:51;;;;;;;0.60;0.10;;;14.50;99.90;;;;;;5013817;28;20526;-72
2023/05/11 06:31:21;;;;;;;0.60;0.10;;;14.50;99.90;;;;;;5009916;28;20458;-72
2023/05/11 06:33:50;;;;;;;0.60;0.10;;;14.50;99.90;;;;;;5014008;28;20485;-72
2023/05/11 06:36:17;;;;;;;0.60;0.10;;;14.60;99.90;;;;;;5016257;28;20457;-70
2023/05/11 06:38:46;;;;;;;0.60;0.10;;;14.60;99.90;;;;;;5001143;28;20457;-71
2023/05/11 06:41:14;;;;;;;0.60;0.10;;;14.70;99.90;;;;;;4995408;28;20483;-72
2023/05/11 06:43:42;;;;;;;0.60;0.10;;;14.80;99.90;;;;;;5003238;28;20557;-72
2023/05/11 06:46:15;;;;;;;0.80;0.20;;;14.90;99.90;;;;;;5014917;28;20445;-71
2023/05/11 06:48:43;;;;;;;0.60;0.10;;;15.00;99.90;;;;;;5014393;28;20456;-72
2023/05/11 06:51:11;;;;;;;0.60;0.10;;;15.00;99.90;;;;;;5018376;28;20456;-74
2023/05/11 06:53:39;;;;;;;0.70;0.50;;;14.90;99.90;;;;;;5021071;28;20537;-71
2023/05/11 06:56:08;;;;;;;1.17;0.23;;;15.00;99.90;;;;;;5013780;28;20456;-73
2023/05/11 06:58:36;;;;;;;0.60;0.10;;;15.00;99.90;;;;;;5015983;28;20858;-73
2023/05/11 07:01:06;;;;;;;0.60;0.10;;;15.10;99.90;;;;;;5014862;28;20491;-72
2023/05/11 07:03:35;;;;;;;0.60;0.10;;;15.20;99.90;;;;;;5012057;28;21128;-71
2023/05/11 07:06:03;;;;;;;0.60;0.10;;;15.20;99.90;;;;;;5014811;28;20455;-73
2023/05/11 07:08:32;;;;;;;0.60;0.10;;;;;;;;;;5010606;28;20448;-72
2023/05/11 07:11:00;;;;;;;0.60;0.10;;;15.20;99.90;;;;;;5012391;28;20464;-73
2023/05/11 07:13:29;;;;;;;0.60;0.10;;;15.30;99.90;;;;;;5008479;28;20453;-75
2023/05/11 07:15:57;;;;;;;0.60;0.10;;;;;;;;;;5013529;28;20442;-72
2023/05/11 07:18:25;;;;;;;0.60;0.10;;;15.50;99.90;;;;;;5012832;28;20544;-72
2023/05/11 07:20:53;;;;;;;0.60;0.10;;;15.60;99.90;;;;;;5012554;28;21016;-74
2023/05/11 07:23:21;;;;;;;0.60;0.10;;;15.70;99.90;;;;;;5006343;28;20473;-72
2023/05/11 07:25:49;;;;;;;0.60;0.10;;;15.70;99.90;;;;;;5007565;28;20442;-71
2023/05/11 07:28:17;;;;;;;0.60;0.10;;;15.80;99.90;;;;;;5009630;28;20464;-73
2023/05/11 07:30:47;;;;;;;0.60;0.10;;;15.80;99.90;;;;;;5012705;28;20451;-73
2023/05/11 07:33:15;;;;;;;0.60;0.10;;;15.80;99.90;;;;;;5012249;28;20552;-73
2023/05/11 07:35:43;;;;;;;5.60;4.43;;;;;;;;;;5012107;28;20441;-73
2023/05/11 07:38:12;;;;;;;0.60;0.10;;;;;;;;;;5012829;28;20467;-73
2023/05/11 07:40:40;;;;;;;0.60;0.10;;;15.70;99.90;;;;;;5004699;28;20944;-73
2023/05/11 07:43:08;;;;;;;0.90;0.80;;;15.70;99.90;;;;;;4992432;28;20455;-73
2023/05/11 07:45:36;;;;;;;0.60;0.10;;;15.60;99.90;;;;;;4992753;28;20449;-73
2023/05/11 07:48:05;;;;;;;0.60;0.10;;;15.60;99.90;;;;;;4993049;28;20457;-72
2023/05/11 07:50:33;;;;;;;0.60;0.10;;;15.60;99.90;;;;;;4997920;28;20457;-74
2023/05/11 07:53:01;;;;;;;0.60;0.17;;;15.60;99.90;;;;;;5012518;28;20502;-73
2023/05/11 07:55:29;;;;;;;0.60;0.10;;;15.70;99.90;;;;;;5007681;28;20453;-72
2023/05/11 07:57:57;;;;;;;0.60;0.10;;;15.70;99.90;;;;;;5011965;28;20513;-72
2023/05/11 08:00:25;;;;;;;0.60;0.10;;;15.70;99.90;;;;;;5011650;28;20473;-71
2023/05/11 08:02:53;;;;;;;0.60;0.10;;;15.70;99.90;;;;;;5012131;28;20446;-72
2023/05/11 08:05:23;;;;;;;0.60;0.10;;;15.70;99.90;;;;;;5012369;28;20451;-72
2023/05/11 08:07:51;;;;;;;0.60;0.10;;;15.70;99.90;;;;;;5011998;28;20525;-74
2023/05/11 08:10:19;;;;;;;0.60;0.10;;;15.70;99.90;;;;;;5013085;28;20447;-73
2023/05/11 08:12:47;;;;;;;0.60;0.10;;;15.80;99.90;;;;;;5008893;28;20884;-71
2023/05/11 08:15:15;;;;;;;0.60;0.10;;;15.90;99.90;;;;;;5004408;28;20440;-72
2023/05/11 08:17:44;;;;;;;0.60;0.10;;;15.90;99.90;;;;;;5013611;28;20474;-72
2023/05/11 08:20:13;;;;;;;0.60;0.10;;;15.80;99.90;;;;;;5010893;28;20456;-72
2023/05/11 08:22:42;;;;;;;0.60;0.20;;;15.80;99.90;;;;;;5012506;28;20949;-73
2023/05/11 08:25:10;;;;;;;0.60;0.10;;;15.70;99.90;;;;;;5011382;28;20467;-73
2023/05/11 08:27:38;;;;;;;0.60;0.10;;;15.80;99.90;;;;;;5012789;28;20462;-73
2023/05/11 08:30:08;;;;;;;0.60;0.10;;;15.90;99.90;;;;;;5009324;28;20479;-73
2023/05/11 08:32:39;;;;;;;0.60;0.10;;;;;;;;;;5001712;28;20565;-73
2023/05/11 08:35:10;;;;;;;0.60;0.10;;;16.00;99.90;;;;;;5003651;28;20458;-72
2023/05/11 08:37:38;;;;;;;0.60;0.10;;;16.10;99.90;;;;;;5009946;28;20593;-74
2023/05/11 08:40:10;;;;;;;0.60;0.10;;;16.00;99.90;;;;;;5011352;28;20440;-73
2023/05/11 08:42:46;;;;;;;0.60;0.10;;;16.10;99.90;;;;;;5011395;28;20455;-72
2023/05/11 08:45:15;;;;;;;0.60;0.10;;;16.10;99.90;;;;;;5011749;28;20442;-73
2023/05/11 08:47:44;;;;;;;0.60;0.10;;;16.10;99.90;;;;;;5015092;28;20470;-72
2023/05/11 08:50:13;;;;;;;0.60;0.10;;;16.10;99.90;;;;;;5014218;28;20491;-75
2023/05/11 08:52:41;;;;;;;0.60;0.10;;;16.20;99.90;;;;;;5004806;28;20467;-74
2023/05/11 08:55:11;;;;;;;0.60;0.10;;;16.30;99.90;;;;;;5012431;28;20875;-74
2023/05/11 08:57:42;;;;;;;0.60;0.10;;;16.50;99.90;;;;;;5006499;28;20472;-74
2023/05/11 09:00:11;;;;;;;0.60;0.10;;;16.60;99.90;;;;;;5012485;28;20454;-76
2023/05/11 09:02:40;;;;;;;0.60;0.10;;;16.70;99.90;;;;;;5002179;28;20484;-75
2023/05/11 09:05:09;;;;;;;0.60;0.10;;;16.90;99.90;;;;;;5010404;28;20451;-74
2023/05/11 09:07:40;;;;;;;0.60;0.10;;;16.90;99.90;;;;;;5014914;28;20999;-74
2023/05/11 09:10:10;;;;;;;0.60;0.10;;;17.10;99.90;;;;;;5014065;28;20489;-74
2023/05/11 09:12:40;;;;;;;0.60;0.20;;;17.10;99.90;;;;;;5014707;28;20440;-73
2023/05/11 09:15:09;;;;;;;0.60;0.10;;;17.10;99.90;;;;;;5014557;28;20449;-73
2023/05/11 09:17:37;;;;;;;0.60;0.20;;;17.10;99.90;;;;;;4999453;28;20487;-75
2023/05/11 09:20:08;;;;;;;0.60;0.10;;;17.10;99.90;;;;;;4995322;28;20527;-74
2023/05/11 09:22:42;;;;;;;0.60;0.10;;;17.10;99.90;;;;;;5014453;28;20548;-76
2023/05/11 09:25:13;;;;;;;0.60;0.10;;;17.00;99.90;;;;;;5014201;28;20448;-73
2023/05/11 09:27:42;;;;;;;0.60;0.10;;;17.00;99.90;;;;;;5010612;28;20486;-73
2023/05/11 09:30:12;;;;;;;0.60;0.10;;;17.00;99.90;;;;;;5007903;28;20517;-75
2023/05/11 09:32:49;;;;;;;0.60;0.10;;;;;;;;;;5004269;28;20975;-68
2023/05/11 09:35:25;;;;;;;0.60;0.10;;;17.10;99.90;;;;;;5014978;28;20448;-72
2023/05/11 09:37:58;;;;;;;0.60;0.10;;;17.00;99.90;;;;;;5014816;28;20844;-71
2023/05/11 09:40:29;;;;;;;0.60;0.17;;;16.80;99.90;;;;;;5014306;28;20451;-72
2023/05/11 09:43:02;;;;;;;0.60;0.10;;;17.00;99.90;;;;;;5013705;28;21015;-72
2023/05/11 09:45:40;;;;;;;0.60;0.10;;;16.90;99.90;;;;;;5008576;28;20824;-72
2023/05/11 09:48:24;;;;;;;0.60;0.10;;;17.00;99.90;;;;;;5013415;28;20466;-72
2023/05/11 09:50:58;;;;;;;0.60;0.10;;;17.20;99.90;;;;;;5014077;28;20463;-72
2023/05/11 09:53:34;;;;;;;0.77;0.50;;;17.30;99.90;;;;;;5013508;28;20823;-72
2023/05/11 09:56:04;;;;;;;0.60;0.10;;;17.30;99.90;;;;;;5010781;28;20459;-71
2023/05/11 09:58:46;;;;;;;0.60;0.10;;;17.20;99.90;;;;;;5010173;28;20954;-72
2023/05/11 10:01:14;;;;;;;0.60;0.10;;;17.20;99.90;;;;;;5013403;28;20475;-72
2023/05/11 10:03:50;;;;;;;0.60;0.10;;;17.20;99.90;;;;;;5013512;28;20447;-70
2023/05/11 10:06:18;;;;;;;0.60;0.10;;;17.30;99.90;;;;;;5014405;28;20470;-74
2023/05/11 10:08:48;;;;;;;0.60;0.20;;;17.40;99.90;;;;;;4998050;28;20449;-76
2023/05/11 10:11:17;;;;;;;0.60;0.10;;;17.40;99.90;;;;;;5002521;28;20449;-74
2023/05/11 10:13:45;;;;;;;0.60;0.13;;;17.40;99.90;;;;;;4994884;28;20765;-73
2023/05/11 10:16:15;;;;;;;0.90;0.20;;;17.50;99.90;;;;;;5012988;28;20472;-74
2023/05/11 10:18:44;;;;;;;0.60;0.10;;;17.50;99.90;;;;;;5013689;28;20444;-74
2023/05/11 10:21:15;;;;;;;0.60;0.10;;;17.50;99.90;;;;;;5014729;28;20470;-73
2023/05/11 10:23:44;;;;;;;0.60;0.10;;;17.60;99.90;;;;;;5013834;28;20453;-71
2023/05/11 10:26:13;;;;;;;0.90;0.20;;;17.70;99.90;;;;;;5013524;28;20903;-71
2023/05/11 10:28:42;;;;;;;0.60;0.10;;;17.70;99.90;;;;;;5006903;28;20459;-71
2023/05/11 10:31:11;;;;;;;0.60;0.10;;;;;;;;;;5013501;28;20538;-71
2023/05/11 10:33:41;;;;;;;0.60;0.10;;;17.50;99.90;;;;;;5005895;28;20470;-73
2023/05/11 10:36:10;;;;;;;0.90;0.20;;;17.60;99.90;;;;;;5011584;28;20533;-70
2023/05/11 10:38:38;;;;;;;0.60;0.20;;;17.70;99.90;;;;;;5013016;28;20447;-76
2023/05/11 10:41:18;;;;;;;0.60;0.13;;;17.80;99.90;;;;;;5012917;28;20976;-70
2023/05/11 10:44:18;;;;;;;0.70;0.20;;;17.90;99.90;;;;;;5008529;28;20436;-70
2023/05/11 10:47:07;;;;;;;0.60;0.27;;;17.70;99.90;;;;;;5012874;28;20476;-73
2023/05/11 10:50:01;;;;;;;0.60;0.10;;;17.60;99.90;;;;;;5012027;28;20478;-71
2023/05/11 10:52:53;;;;;;;0.60;0.10;;;17.50;99.90;;;;;;5012299;28;20541;-71
2023/05/11 10:55:31;;;;;;;0.60;0.10;;;17.60;99.90;;;;;;5004997;28;20546;-70
2023/05/11 10:58:08;;;;;;;0.60;0.10;;;17.60;99.90;;;;;;5012611;28;20473;-70
2023/05/11 11:01:21;;;;;;;0.60;0.10;;;17.50;99.90;;;;;;5011964;28;20443;-70
2023/05/11 11:04:01;;;;;;;0.60;0.10;;;17.80;99.90;;;;;;5012357;28;20477;-70
2023/05/11 11:06:30;;;;;;;0.60;0.10;;;17.90;99.90;;;;;;5003835;28;20484;-70
2023/05/11 11:09:00;;;;;;;0.60;0.10;;;17.80;99.90;;;;;;5007246;28;20466;-71
2023/05/11 11:11:30;;;;;;;0.60;0.10;;;17.90;99.90;;;;;;5011605;28;20440;-71
2023/05/11 11:14:01;;;;;;;0.60;0.10;;;18.00;99.90;;;;;;5012060;28;20808;-72
2023/05/11 11:16:31;;;;;;;0.60;0.10;;;17.90;99.90;;;;;;5004522;28;20478;-70
2023/05/11 11:19:37;;;;;;;0.60;0.10;;;18.00;99.90;;;;;;5011445;28;20990;-71
2023/05/11 11:22:05;;;;;;;0.60;0.10;;;18.10;99.90;;;;;;4993800;28;20495;-70
2023/05/11 11:24:45;;;;;;;0.60;0.20;;;18.20;99.90;;;;;;5010691;28;20541;-71
2023/05/11 11:27:14;;;;;;;0.60;0.10;;;18.00;99.90;;;;;;5012595;28;20459;-71
2023/05/11 11:30:05;;;;;;;0.70;0.40;;;18.00;99.90;;;;;;5003926;28;20466;-73
2023/05/11 11:32:34;;;;;;;0.60;0.10;;;17.80;99.90;;;;;;4991482;28;20525;-71
2023/05/11 11:35:03;;;;;;;1.70;1.60;;;17.70;99.90;;;;;;4993231;28;20476;-72
2023/05/11 11:38:00;;;;;;;0.60;0.10;;;17.70;99.90;;;;;;4993574;28;20530;-74
2023/05/11 11:40:35;;;;;;;0.60;0.10;;;18.40;99.90;;;;;;5012084;28;20478;-76
2023/05/11 11:43:19;;;;;;;0.60;0.10;;;17.60;99.90;;;;;;5003005;28;20481;-71
2023/05/11 11:45:51;;;;;;;0.60;0.10;;;17.60;99.90;;;;;;4994492;28;20462;-72
2023/05/11 11:48:29;;;;;;;0.60;0.20;;;17.50;99.90;;;;;;4997531;28;20523;-71
2023/05/11 11:51:03;;;;;;;0.60;0.20;;;17.40;99.90;;;;;;4992412;28;20484;-72
2023/05/11 11:54:07;;;;;;;1.27;0.97;;;17.40;99.90;;;;;;4992543;28;20453;-71
2023/05/11 11:56:45;;;;;;;0.60;0.10;;;;;;;;;;5000873;28;20586;-73
2023/05/11 11:59:15;;;;;;;0.60;0.10;;;17.50;99.90;;;;;;5011764;28;20451;-74
2023/05/11 12:01:44;;;;;;;0.60;0.13;;;17.30;99.90;;;;;;5008498;28;20452;-71
2023/05/11 12:04:44;;;;;;;0.60;0.10;;;17.30;99.90;;;;;;5011486;28;20493;-72
2023/05/11 12:07:14;;;;;;;0.60;0.10;;;17.40;99.90;;;;;;5005888;28;20468;-71
2023/05/11 12:09:45;;;;;;;0.60;0.10;;;17.40;99.90;;;;;;5011485;28;20439;-71
2023/05/11 12:12:17;;;;;;;0.60;0.10;;;17.40;99.90;;;;;;5011238;28;21297;-73
2023/05/11 12:14:47;;;;;;;0.60;0.10;;;17.30;99.90;;;;;;5011216;28;20967;-70
2023/05/11 12:17:23;;;;;;;0.60;0.10;;;17.30;99.90;;;;;;5011226;28;21021;-73
2023/05/11 12:19:52;;;;;;;0.60;0.20;;;17.20;99.90;;;;;;5008764;28;20449;-71
2023/05/11 12:22:24;;;;;;;0.60;0.10;;;17.20;99.90;;;;;;5003406;28;20450;-72
2023/05/11 12:24:55;;;;;;;0.60;0.10;;;17.20;99.90;;;;;;5015145;28;20450;-72
2023/05/11 12:27:26;;;;;;;0.60;0.10;;;17.10;99.90;;;;;;5014368;28;20498;-74
2023/05/11 12:29:55;;;;;;;0.90;0.77;;;17.10;99.90;;;;;;5015027;28;20454;-69
2023/05/11 12:32:28;;;;;;;0.60;0.10;;;17.10;99.90;;;;;;5012251;28;21464;-72
2023/05/11 12:35:02;;;;;;;0.60;0.10;;;17.10;99.90;;;;;;5012102;28;20444;-70
2023/05/11 12:37:31;;;;;;;0.60;0.10;;;17.10;99.90;;;;;;5013980;28;20474;-72
2023/05/11 12:39:59;;;;;;;0.60;0.20;;;17.10;99.90;;;;;;5014906;28;20459;-71
2023/05/11 12:42:27;;;;;;;0.60;0.20;;;;;;;;;;5005960;28;20518;-72
2023/05/11 12:44:56;;;;;;;0.60;0.10;;;16.80;99.90;;;;;;5006768;28;21001;-70
2023/05/11 12:47:26;;;;;;;0.60;0.20;;;16.80;99.90;;;;;;5003632;28;20474;-71
2023/05/11 12:49:57;;;;;;;0.60;0.10;;;16.80;99.90;;;;;;5014860;28;20443;-72
2023/05/11 12:52:26;;;;;;;1.13;1.03;;;16.90;99.90;;;;;;5014723;28;20443;-73
2023/05/11 12:54:58;;;;;;;0.60;0.10;;;16.90;99.90;;;;;;5010579;28;20455;-71
2023/05/11 12:57:28;;;;;;;0.60;0.20;;;16.80;99.90;;;;;;5014009;28;20476;-73
2023/05/11 13:00:08;;;;;;;0.60;0.10;;;16.70;99.90;;;;;;5014980;28;20872;-71
2023/05/11 13:02:44;;;;;;;0.60;0.10;;;16.70;99.90;;;;;;5019290;28;20522;-72
2023/05/11 13:05:13;;;;;;;0.60;0.20;;;16.80;99.90;;;;;;5010065;28;20502;-71
2023/05/11 13:07:43;;;;;;;0.60;0.10;;;16.80;99.90;;;;;;5014460;28;20553;-72
2023/05/11 13:10:12;;;;;;;0.60;0.10;;;16.80;99.90;;;;;;5014343;28;20467;-72
2023/05/11 13:12:50;;;;;;;0.60;0.10;;;16.90;99.90;;;;;;5015022;28;20473;-72
2023/05/11 13:15:19;;;;;;;0.60;0.10;;;16.80;99.90;;;;;;5015294;28;20455;-72
2023/05/11 13:17:54;;;;;;;0.60;0.10;;;16.80;99.90;;;;;;5015299;28;20478;-72
2023/05/11 13:20:26;;;;;;;0.60;0.10;;;16.70;99.90;;;;;;5013074;28;20574;-73
2023/05/11 13:23:05;;;;;;;0.60;0.10;;;16.70;99.90;;;;;;5011372;28;20436;-73
2023/05/11 13:25:34;;;;;;;0.60;0.10;;;16.80;99.90;;;;;;5014142;28;20973;-72
2023/05/11 13:28:02;;;;;;;0.60;0.10;;;16.70;99.90;;;;;;5014396;28;20470;-73
2023/05/11 13:30:30;;;;;;;0.60;0.10;;;16.80;99.90;;;;;;5014739;28;20488;-73
2023/05/11 13:33:01;;;;;;;0.60;0.13;;;16.90;99.90;;;;;;5012346;28;20457;-73
2023/05/11 13:35:29;;;;;;;0.60;0.10;;;17.00;99.90;;;;;;5014195;28;20517;-72
2023/05/11 13:37:57;;;;;;;0.60;0.20;;;16.90;99.90;;;;;;5014381;28;20506;-73
2023/05/11 13:40:27;;;;;;;0.60;0.10;;;;;;;;;;5013518;28;20471;-73
2023/05/11 13:42:55;;;;;;;1.07;0.77;;;17.00;99.90;;;;;;5010477;28;20460;-73
2023/05/11 13:45:23;;;;;;;0.60;0.10;;;17.00;99.90;;;;;;5007107;28;20468;-72
2023/05/11 13:47:51;;;;;;;0.70;0.20;;;17.10;99.90;;;;;;5010842;28;20870;-72
2023/05/11 13:50:19;;;;;;;0.60;0.10;;;17.10;99.90;;;;;;5009575;28;20529;-72
2023/05/11 13:52:47;;;;;;;0.60;0.20;;;17.10;99.90;;;;;;5014152;28;20510;-74
2023/05/11 13:55:15;;;;;;;0.60;0.10;;;;;;;;;;5007142;28;21167;-70
2023/05/11 13:57:44;;;;;;;0.60;0.10;;;17.00;99.90;;;;;;5003123;28;20472;-73
2023/05/11 14:00:13;;;;;;;0.60;0.10;;;17.00;99.90;;;;;;5006469;28;20455;-70
2023/05/11 14:02:41;;;;;;;0.60;0.10;;;17.00;99.90;;;;;;5000840;28;20962;-70
2023/05/11 14:05:10;;;;;;;0.60;0.10;;;17.00;99.90;;;;;;5011163;28;20482;-72
2023/05/11 14:07:38;;;;;;;0.60;0.10;;;17.10;99.90;;;;;;5012661;28;20487;-74
2023/05/11 14:10:16;;;;;;;0.60;0.10;;;;;;;;;;5006272;28;21015;-72
2023/05/11 14:12:45;;;;;;;0.60;0.10;;;17.00;99.90;;;;;;5014305;28;20876;-72
2023/05/11 14:15:13;;;;;;;0.60;0.10;;;17.00;99.90;;;;;;5015176;28;20451;-72
2023/05/11 14:17:41;;;;;;;0.70;0.40;;;16.90;99.90;;;;;;5016069;28;20477;-73
2023/05/11 14:20:11;;;;;;;0.60;0.10;;;16.90;99.90;;;;;;5006190;28;20460;-73
2023/05/11 14:22:40;;;;;;;0.60;0.20;;;16.80;99.90;;;;;;4994304;28;20451;-73
2023/05/11 14:25:08;;;;;;;0.60;0.20;;;;;;;;;;4997677;28;20990;-72
2023/05/11 14:27:36;;;;;;;0.60;0.10;;;16.80;99.90;;;;;;5013775;28;20467;-73
2023/05/11 14:30:07;;;;;;;0.60;0.10;;;16.80;99.90;;;;;;5014741;28;20491;-72
2023/05/11 14:32:35;;;;;;;0.60;0.10;;;16.80;99.90;;;;;;5007800;28;20956;-72
2023/05/11 14:35:04;;;;;;;0.60;0.10;;;16.80;99.90;;;;;;4998895;28;21024;-72
2023/05/11 14:37:31;;;;;;;0.60;0.10;;;16.80;99.90;;;;;;4994876;28;20488;-72
2023/05/11 14:39:59;;;;;;;0.60;0.10;;;16.90;99.90;;;;;;4993886;28;20821;-72
2023/05/11 14:42:28;;;;;;;0.60;0.10;;;;;;;;;;4994675;28;20493;-72
2023/05/11 14:44:56;;;;;;;0.60;0.10;;;16.90;99.90;;;;;;4994537;28;20692;-73
2023/05/11 14:47:27;;;;;;;0.60;0.10;;;16.90;99.90;;;;;;4996857;28;20491;-72
2023/05/11 14:49:55;;;;;;;0.60;0.10;;;16.90;99.90;;;;;;5011643;28;20527;-73
2023/05/11 14:52:25;;;;;;;0.60;0.10;;;16.90;99.90;;;;;;5013328;28;20459;-72
2023/05/11 14:54:53;;;;;;;0.60;0.10;;;16.90;99.90;;;;;;5014165;28;20533;-73
2023/05/11 14:57:26;;;;;;;0.60;0.10;;;;;;;;;;5013778;28;20467;-70
2023/05/11 14:59:55;;;;;;;0.60;0.10;;;16.90;99.90;;;;;;5014722;28;20814;-72
2023/05/11 15:02:29;;;;;;;0.60;0.10;;;;;;;;;;4997372;28;20459;-75
2023/05/11 15:04:57;;;;;;;0.60;0.10;;;16.80;99.90;;;;;;5008722;28;20570;-76
2023/05/11 15:07:26;;;;;;;0.60;0.20;;;;;;;;;;5024602;28;20463;-73
2023/05/11 15:09:54;;;;;;;0.60;0.20;;;16.80;99.90;;;;;;5026588;28;20802;-73
2023/05/11 15:12:25;;;;;;;0.60;0.10;;;16.90;99.90;;;;;;5020514;28;20459;-72
2023/05/11 15:14:55;;;;;;;0.60;0.10;;;16.80;99.90;;;;;;5027777;28;20514;-71
2023/05/11 15:17:24;;;;;;;0.60;0.10;;;;;;;;;;5034329;28;20480;-73
2023/05/11 15:19:54;;;;;;;0.60;0.20;;;;;;;;;;5033676;28;20880;-72
2023/05/11 15:22:24;;;;;;;0.60;0.10;;;;;;;;;;5031284;28;20451;-75
2023/05/11 15:24:52;;;;;;;0.60;0.20;;;16.80;99.90;;;;;;5011815;28;20570;-73
2023/05/11 15:27:20;;;;;;;0.60;0.10;;;16.80;99.90;;;;;;5012484;28;20563;-69
2023/05/11 15:29:49;;;;;;;0.60;0.10;;;16.90;99.90;;;;;;5012481;28;20451;-70
2023/05/11 15:32:18;;;;;;;0.60;0.10;;;;;;;;;;5012417;28;20449;-69
2023/05/11 15:34:46;;;;;;;0.70;0.20;;;16.90;99.90;;;;;;4993522;28;20540;-71
2023/05/11 15:37:28;;;;;;;0.60;0.10;;;16.90;99.90;;;;;;4993897;28;20470;-68
2023/05/11 15:39:57;;;;;;;0.60;0.10;;;;;;;;;;4994146;28;20786;-70
2023/05/11 15:42:30;;;;;;;0.60;0.10;;;17.00;99.90;;;;;;4993278;28;20459;-69
2023/05/11 15:44:59;;;;;;;0.60;0.10;;;;;;;;;;4998925;28;20495;-68
2023/05/11 15:47:27;;;;;;;0.60;0.10;;;16.90;99.90;;;;;;5014089;28;20819;-67
2023/05/11 15:49:55;;;;;;;0.60;0.10;;;16.70;99.90;;;;;;5014324;28;20533;-72
2023/05/11 15:52:23;;;;;;;0.60;0.10;;;16.70;99.90;;;;;;5009405;28;20460;-70
2023/05/11 15:54:53;;;;;;;0.60;0.10;;;;;;;;;;5015884;28;20432;-71
2023/05/11 15:57:21;;;;;;;0.60;0.10;;;16.50;99.90;;;;;;5018525;28;21007;-71
2023/05/11 15:59:49;;;;;;;0.60;0.20;;;16.50;99.90;;;;;;5022026;28;20490;-71
2023/05/11 16:02:16;;;;;;;0.60;0.10;;;16.40;99.90;;;;;;5016689;28;20446;-71
2023/05/11 16:04:44;;;;;;;0.60;0.10;;;16.30;99.90;;;;;;5012189;28;20561;-69
2023/05/11 16:07:12;;;;;;;0.60;0.10;;;16.30;99.90;;;;;;5015655;28;20502;-70
2023/05/11 16:09:40;;;;;;;0.60;0.10;;;16.30;99.90;;;;;;5015874;28;20469;-69
2023/05/11 16:12:10;;;;;;;0.60;0.10;;;16.30;99.90;;;;;;5015150;28;20481;-70
2023/05/11 16:14:38;;;;;;;0.60;0.10;;;16.30;99.90;;;;;;5015535;28;20443;-70
2023/05/11 16:17:06;;;;;;;0.60;0.10;;;16.30;99.90;;;;;;4996190;28;20523;-69
2023/05/11 16:19:34;;;;;;;24.60;6.93;;;13.80;99.90;;;;;;4995967;28;20443;-69
2023/05/11 16:22:02;;;;;;;3.67;2.63;;;16.40;99.90;;;;;;4996090;28;20447;-69
2023/05/11 16:24:32;;;;;;;0.60;0.17;;;16.40;99.90;;;;;;5003741;28;20484;-69
2023/05/11 16:27:01;;;;;;;0.60;0.10;;;16.30;99.90;;;;;;5008879;28;20469;-69
2023/05/11 16:29:30;;;;;;;0.60;0.10;;;16.20;99.90;;;;;;5015558;28;20444;-69
2023/05/11 16:31:58;;;;;;;0.60;0.10;;;16.20;99.90;;;;;;5009936;28;20470;-69
2023/05/11 16:34:27;;;;;;;0.60;0.10;;;16.20;99.90;;;;;;5015166;28;20502;-68
2023/05/11 16:36:55;;;;;;;0.60;0.10;;;;;;;;;;5007241;28;20493;-70
2023/05/11 16:39:26;;;;;;;0.60;0.10;;;16.20;99.90;;;;;;5015885;28;21230;-69
2023/05/11 16:41:53;;;;;;;0.60;0.10;;;16.30;99.90;;;;;;5013687;28;20470;-68
2023/05/11 16:44:21;;;;;;;0.60;0.10;;;;;;;;;;5013183;28;20458;-69
2023/05/11 16:46:51;;;;;;;0.60;0.10;;;16.40;99.90;;;;;;5014569;28;20479;-69
2023/05/11 16:49:19;;;;;;;1.03;0.93;;;16.40;99.90;;;;;;5016064;28;20508;-69
2023/05/11 16:51:47;;;;;;;0.60;0.10;;;16.40;99.90;;;;;;5007805;28;20444;-70
2023/05/11 16:54:15;;;;;;;0.60;0.10;;;16.50;99.90;;;;;;4995543;28;20443;-70
2023/05/11 16:56:42;;;;;;;0.60;0.17;;;16.50;99.90;;;;;;5000440;28;20454;-70
2023/05/11 16:59:10;;;;;;;0.60;0.10;;;16.50;99.90;;;;;;5014718;28;20943;-71
2023/05/11 17:01:38;;;;;;;0.60;0.10;;;16.50;99.90;;;;;;5014563;28;20532;-72
2023/05/11 17:04:09;;;;;;;0.60;0.10;;;16.50;99.90;;;;;;5006407;23;20679;-74
2023/05/11 17:06:36;;;;;;;0.60;0.10;;;16.50;99.90;;;;;;4955365;29;20491;-72
2023/05/11 17:09:05;;;;;;;0.60;0.10;;;16.30;99.90;;;;;;4956705;29;20459;-73
2023/05/11 17:11:33;;;;;;;0.60;0.10;;;16.30;99.90;;;;;;4953077;28;20459;-73